• Join FlightAware (Why Join?)
  • Login
  • US Flag 
04:43AM EST


 

Airport Tracker/Info


-or-


 

Live Flight TrackerFlight Track Log ✈ GJS6221 ✈ 29-Dec-2013 ✈ KLGA - KSAV

Flight Track Log - Related Links

Times and Time Zones

All times are in EST time to prevent confusion due to time zone crossing. See the GJS6221 flight status page for this flight to view local times or setup timezone preferences in your user account.

Time Position Orientation Groundspeed Altitude Reporting Facility
EST Latitude Longitude Course Direction KTS MPH feet Rate Location/Type
02:40PM 40.7667 -73.8500 180° South 152 175 1,600  Level New York TRACON
02:41PM 40.7167 -73.8500 180° South 176 203 4,800 2,700 Climbing New York TRACON
02:42PM 40.6667 -73.8500 180° South 193 222 7,000 2,100 Climbing New York TRACON
02:43PM 40.6167 -73.9000 217° Southwest 224 258 9,100 2,400 Climbing New York TRACON
02:44PM 40.5667 -73.9333 207° Southwest 222 255 11,900 1,920 Climbing New York TRACON
02:46PM 40.4250 -74.0289 207° Southwest 265 305 15,400 1,320 Climbing New York Center
02:48PM 40.2856 -74.1039 202° Southwest 299 344 17,400 1,140 Climbing Washington Center
02:49PM 40.2069 -74.1628 210° Southwest 319 367 18,800 1,320 Climbing Washington Center
02:50PM 40.1331 -74.2456 221° Southwest 332 382 20,100 1,260 Climbing Washington Center
02:51PM 40.0589 -74.3231 219° Southwest 343 395 21,400 1,200 Climbing Washington Center
02:52PM 39.9847 -74.3975 218° Southwest 343 395 22,500 1,080 Climbing Washington Center
02:53PM 39.9083 -74.4797 220° Southwest 353 406 23,600 1,020 Climbing Washington Center
02:54PM 39.8300 -74.5622 219° Southwest 359 413 24,600 960 Climbing Washington Center
02:55PM 39.7514 -74.6442 219° Southwest 359 413 25,600 960 Climbing Washington Center
02:56PM 39.6647 -74.7344 219° Southwest 364 419 26,600 960 Climbing Washington Center
02:57PM 39.5861 -74.8161 219° Southwest 364 419 27,600 1,020 Climbing Washington Center
02:58PM 39.5094 -74.8950 218° Southwest 370 426 28,700 1,020 Climbing Washington Center
02:59PM 39.4264 -74.9683 214° Southwest 370 426 29,700 960 Climbing Washington Center
03:00PM 39.3433 -75.0333 211° Southwest 364 419 30,700 960 Climbing Washington Center
03:01PM 39.2625 -75.0983 212° Southwest 359 413 31,700 960 Climbing Washington Center
03:02PM 39.1814 -75.1606 211° Southwest 354 407 32,700 900 Climbing Washington Center
03:03PM 39.1025 -75.2225 211° Southwest 344 396 33,500 780 Climbing Washington Center
03:04PM 39.0214 -75.2844 211° Southwest 339 390 34,300 720 Climbing Washington Center
03:05PM 38.9422 -75.3514 213° Southwest 339 390 35,000 660 Climbing Washington Center
03:06PM 38.8631 -75.4103 210° Southwest 339 390 35,700 480 Climbing Washington Center
03:07PM 38.7839 -75.4692 210° Southwest 339 390 36,000 120 Climbing Washington Center
03:08PM 38.7069 -75.5306 212° Southwest 339 390 36,000  Level Washington Center
03:09PM 38.6278 -75.5889 210° Southwest 339 390 36,000  Level Washington Center
03:10PM 38.5506 -75.6528 213° Southwest 339 390 36,000  Level Washington Center
03:11PM 38.4733 -75.7083 209° Southwest 339 390 36,000  Level Washington Center
03:12PM 38.3983 -75.7664 211° Southwest 334 384 36,000  Level Washington Center
03:13PM 38.3231 -75.8219 210° Southwest 329 379 36,000  Level Washington Center
03:14PM 38.2458 -75.8772 209° Southwest 324 373 36,000  Level Washington Center
03:15PM 38.1747 -75.9325 211° Southwest 313 360 36,000  Level Washington Center
03:16PM 38.0994 -75.9875 210° Southwest 313 360 36,000  Level Washington Center
03:17PM 38.0222 -76.0453 211° Southwest 313 360 36,000  Level Washington Center
03:18PM 37.9489 -76.1000 210° Southwest 313 360 36,000  Level Washington Center
03:19PM 37.8758 -76.1575 212° Southwest 313 360 36,000  Level Washington Center
03:20PM 37.8025 -76.2119 210° Southwest 313 360 36,000  Level Washington Center
03:21PM 37.7269 -76.2667 210° Southwest 313 360 36,000  Level Washington Center
03:22PM 37.6536 -76.3236 212° Southwest 313 360 36,000  Level Washington Center
03:23PM 37.5783 -76.3806 211° Southwest 313 360 36,000  Level Washington Center
03:24PM 37.5028 -76.4347 210° Southwest 313 360 36,000  Level Washington Center
03:25PM 37.4275 -76.4889 210° Southwest 313 360 36,000  Level Washington Center
03:26PM 37.3519 -76.5428 210° Southwest 313 360 36,000  Level Washington Center
03:27PM 37.2764 -76.5994 211° Southwest 313 360 36,000  Level Washington Center
03:28PM 37.2008 -76.6558 211° Southwest 313 360 36,000  Level Washington Center
03:29PM 37.1272 -76.7172 214° Southwest 313 360 36,000  Level Washington Center
03:30PM 37.0597 -76.7839 218° Southwest 313 360 36,000  Level Washington Center
03:31PM 36.9922 -76.8531 219° Southwest 313 360 36,000  Level Washington Center
03:32PM 36.9228 -76.9194 217° Southwest 319 367 36,000  Level Washington Center
03:33PM 36.8531 -76.9858 217° Southwest 319 367 36,000  Level Washington Center
03:34PM 36.7836 -77.0544 218° Southwest 319 367 36,000  Level Washington Center
03:35PM 36.7139 -77.1206 217° Southwest 319 367 36,000  Level Washington Center
03:36PM 36.6419 -77.1892 217° Southwest 324 373 36,000  Level Washington Center
03:37PM 36.5722 -77.2550 217° Southwest 324 373 36,000  Level Washington Center
03:38PM 36.5025 -77.3206 217° Southwest 324 373 36,000  Level Washington Center
03:39PM 36.4325 -77.3889 218° Southwest 324 373 36,000  Level Washington Center
03:40PM 36.3628 -77.4542 217° Southwest 324 373 36,000  Level Washington Center
03:41PM 36.2992 -77.5144 217° Southwest 317 365 36,000  Level Washington Center
03:42PM 36.2292 -77.5797 217° Southwest 322 371 36,000  Level Washington Center
03:43PM 36.1572 -77.6475 217° Southwest 322 371 36,000  Level Washington Center
03:44PM 36.0872 -77.7150 218° Southwest 322 371 36,000  Level Washington Center
03:45PM 36.0150 -77.7825 217° Southwest 322 371 36,000  Level Washington Center
03:46PM 35.9408 -77.8472 215° Southwest 322 371 36,000  Level Washington Center
03:47PM 35.8706 -77.9169 219° Southwest 322 371 36,000  Level Washington Center
03:48PM 35.7964 -77.9839 216° Southwest 322 371 36,000  Level Washington Center
03:49PM 35.7239 -78.0508 217° Southwest 322 371 36,000  Level Washington Center
03:50PM 35.6494 -78.1175 216° Southwest 322 371 36,000  Level Washington Center
03:51PM 35.5731 -78.1867 216° Southwest 327 376 36,000  Level Washington Center
03:52PM 35.4983 -78.2531 216° Southwest 332 382 36,000  Level Washington Center
03:53PM 35.4217 -78.3219 216° Southwest 343 395 36,000  Level Washington Center
03:54PM 35.3364 -78.4003 217° Southwest 348 400 36,000  Level Washington Center
03:55PM 35.2575 -78.4739 217° Southwest 348 400 36,000  Level Washington Center
03:56PM 35.1828 -78.5450 218° Southwest 348 400 36,000  Level Washington Center
03:57PM 35.1058 -78.6158 217° Southwest 348 400 36,000  Level Washington Center
03:58PM 35.0247 -78.6889 216° Southwest 348 400 36,000  Level Washington Center
03:59PM 34.9478 -78.7594 217° Southwest 348 400 36,000  Level Washington Center
04:00PM 34.8686 -78.8297 216° Southwest 348 400 36,000  Level Washington Center
04:02PM 34.6794 -78.9972 216° Southwest 357 411 36,000  Level Jacksonville Center
04:03PM 34.6006 -79.0714 218° Southwest 357 411 36,000  Level Jacksonville Center
04:04PM 34.5172 -79.1431 215° Southwest 357 411 36,000  Level Jacksonville Center
04:05PM 34.4361 -79.2219 219° Southwest 369 425 36,000 -120 Level Jacksonville Center
04:06PM 34.3525 -79.2961 216° Southwest 374 430 35,800 -780 Descending Jacksonville Center
04:07PM 34.2672 -79.3725 217° Southwest 379 436 34,500 -900 Descending Jacksonville Center
04:08PM 34.1856 -79.4386 214° Southwest 379 436 34,000 -300 Descending Jacksonville Center
04:09PM 34.1042 -79.5119 217° Southwest 366 421 34,000  Level Jacksonville Center
04:10PM 34.0164 -79.5881 216° Southwest 377 434 34,000  Level Jacksonville Center
04:11PM 33.9286 -79.6639 216° Southwest 384 442 34,000 -240 Level Jacksonville Center
04:12PM 33.8431 -79.7394 216° Southwest 384 442 33,600 -1,020 Descending Jacksonville Center
04:13PM 33.7592 -79.8150 217° Southwest 384 442 32,000 -1,560 Descending Jacksonville Center
04:14PM 33.6756 -79.8878 216° Southwest 379 436 30,500 -1,500 Descending Jacksonville Center
04:15PM 33.5917 -79.9606 216° Southwest 379 436 29,000 -1,680 Descending Jacksonville Center
04:16PM 33.5097 -80.0303 215° Southwest 379 436 27,200 -1,860 Descending Jacksonville Center
04:17PM 33.4258 -80.1028 216° Southwest 379 436 25,300 -1,920 Descending Jacksonville Center
04:18PM 33.3439 -80.1775 217° Southwest 379 436 23,400 -1,920 Descending Jacksonville Center
04:19PM 33.2619 -80.2469 215° Southwest 379 436 21,500 -1,620 Descending Jacksonville Center
04:20PM 33.1881 -80.3089 215° Southwest 372 428 20,200 -780 Descending Jacksonville Center
04:21PM 33.1081 -80.3781 216° Southwest 367 422 20,000 -120 Descending Jacksonville Center
04:22PM 33.0281 -80.4472 216° Southwest 360 414 20,000 -780 Level Jacksonville Center
04:23PM 32.9500 -80.5111 214° Southwest 360 414 18,500 -1,920 Descending Jacksonville Center
04:24PM 32.8758 -80.5725 215° Southwest 348 400 16,200 -2,220 Descending Jacksonville Center
04:25PM 32.8039 -80.6336 216° Southwest 330 380 14,100 -1,980 Descending Jacksonville Center
04:26PM 32.7403 -80.6894 216° Southwest 314 361 12,300 -1,500 Descending Jacksonville Center
04:27PM 32.6786 -80.7406 215° Southwest 299 344 11,100 -1,500 Descending Jacksonville Center
04:28PM 32.6189 -80.7911 215° Southwest 252 290 9,300 -1,740 Descending Jacksonville Center
04:29PM 32.5714 -80.8317 216° Southwest 242 278 7,700 -1,560 Descending Jacksonville Center
04:30PM 32.5011 -80.8653 202° Southwest 247 284 6,200 -1,440 Descending Jacksonville Center
04:31PM 32.4367 -80.8889 197° South 247 284 4,900 -1,200 Descending Jacksonville Center
04:32PM 32.3703 -80.9125 197° South 241 277 3,900 -1,020 Descending Jacksonville Center
04:34PM 32.2757 -81.0257 212° Southwest  Level Estimated
04:41PM 32.1167 -81.2000 180° South  Level FlightAware Approximate
04:42PM 32.1276 -81.2021 180° South  Level Estimated
04:43PM 32.1276 -81.2021 180° South  Level Estimated
04:44PM 32.1276 -81.2021 180° South  Level Estimated
04:45PM 32.1276 -81.2021 180° South  Level Estimated
04:46PM 32.1276 -81.2021 180° South  Level Estimated
04:47PM 32.1276 -81.2021 180° South  Level Estimated
04:48PM 32.1276 -81.2021 180° South  Level Estimated
04:49PM 32.1276 -81.2021 180° South  Level Estimated